Time;durP1;ratioP1;P1;durP2;ratioP2;P2;SDS_P1;SDS_P2;PMS_P1;PMS_P2;Temp;Humidity;BMP_temperature;BMP_pressure;BME280_temperature;BME280_humidity;BME280_pressure;Samples;Min_cycle;Max_cycle;Signal;HPM_P1;HPM_P2
2021/12/01 00:02:15;;;;;;;29.80;22.65;;;;;;;;;;5066965;28;20276;-59
2021/12/01 00:04:40;;;;;;;30.50;21.67;;;;;;;;;;5049570;28;20239;-59
2021/12/01 00:07:07;;;;;;;26.00;20.38;;;;;;;;;;5066220;28;20214;-59
2021/12/01 00:09:33;;;;;;;26.05;20.80;;;;;;;;;;5067078;28;20222;-59
2021/12/01 00:11:58;;;;;;;26.85;21.08;;;;;;;;;;5066961;28;20225;-59
2021/12/01 00:14:23;;;;;;;28.50;19.05;;;;;;;;;;5048649;28;20209;-59
2021/12/01 00:16:49;;;;;;;25.17;17.92;;;;;;;;;;5049573;28;20218;-59
2021/12/01 00:19:14;;;;;;;19.58;16.73;;;;;;;;;;5065526;28;20289;-59
2021/12/01 00:21:39;;;;;;;19.85;15.45;;;;;;;;;;5067412;28;20217;-59
2021/12/01 00:24:04;;;;;;;17.88;15.23;;;;;;;;;;5066631;28;20682;-58
2021/12/01 00:26:31;;;;;;;16.17;14.27;;;;;;;;;;5066372;28;20757;-59
2021/12/01 00:28:56;;;;;;;15.32;13.00;;;;;;;;;;5067210;28;20221;-59
2021/12/01 00:31:21;;;;;;;17.17;13.10;;;;;;;;;;5066368;28;20210;-59
2021/12/01 00:33:47;;;;;;;14.40;11.50;;;;;;;;;;5066469;28;20219;-59
2021/12/01 00:36:14;;;;;;;12.68;10.45;;;;;;;;;;5066249;28;20222;-59
2021/12/01 00:38:40;;;;;;;12.48;9.63;;;;;;;;;;5066950;28;20305;-59
2021/12/01 00:41:07;;;;;;;11.02;8.95;;;;;;;;;;5047717;28;20683;-59
2021/12/01 00:43:34;;;;;;;11.02;8.27;;;;;;;;;;5066168;28;20218;-59
2021/12/01 00:46:09;;;;;;;8.20;7.20;;;;;;;;;;5066352;28;20221;-59
2021/12/01 00:48:35;;;;;;;9.77;7.50;;;;;;;;;;5064767;28;20297;-59
2021/12/01 00:51:00;;;;;;;10.18;6.85;;;;;;;;;;5066337;28;20349;-59
2021/12/01 00:53:25;;;;;;;9.57;6.70;;;;;;;;;;5065918;28;20293;-59
2021/12/01 00:55:51;;;;;;;7.50;6.28;;;;;;;;;;5065369;28;20203;-59
2021/12/01 00:58:16;;;;;;;10.27;6.50;;;;;;;;;;5064675;28;20240;-60
2021/12/01 01:00:41;;;;;;;7.18;6.28;;;;;;;;;;5066182;28;20309;-59
2021/12/01 01:03:08;;;;;;;7.50;5.70;;;;;;;;;;5064908;28;20209;-59
2021/12/01 01:05:33;;;;;;;7.05;5.13;;;;;;;;;;5065912;28;20347;-59
2021/12/01 01:07:59;;;;;;;5.97;4.68;;;;;;;;;;5066161;28;20650;-59
2021/12/01 01:18:36;;;;;;;5.65;4.13;;;;;;;;;;5064822;28;20203;-59
2021/12/01 01:21:01;;;;;;;6.10;4.15;;;;;;;;;;5065095;28;20715;-60
2021/12/01 01:23:29;;;;;;;5.57;4.25;;;;;;;;;;5065256;28;20206;-59
2021/12/01 01:25:54;;;;;;;6.25;4.40;;;;;;;;;;5065545;28;20202;-59
2021/12/01 01:28:19;;;;;;;5.00;3.90;;;;;;;;;;5065477;28;20237;-59
2021/12/01 01:30:45;;;;;;;5.47;4.32;;;;;;;;;;5064813;28;20203;-59
2021/12/01 01:33:10;;;;;;;5.38;4.53;;;;;;;;;;5065125;28;20653;-59
2021/12/01 01:35:35;;;;;;;5.75;4.40;;;;;;;;;;5065542;28;20214;-59
2021/12/01 01:38:00;;;;;;;5.43;4.32;;;;;;;;;;5064516;28;20210;-59
2021/12/01 01:40:26;;;;;;;5.88;4.32;;;;;;;;;;5065406;28;20226;-59
2021/12/01 01:42:51;;;;;;;5.10;4.35;;;;;;;;;;5065424;28;20202;-59
2021/12/01 01:45:17;;;;;;;6.32;4.30;;;;;;;;;;5064236;28;20583;-59
2021/12/01 01:47:48;;;;;;;7.43;4.20;;;;;;;;;;5064823;28;20226;-59
2021/12/01 01:50:34;;;;;;;5.40;4.22;;;;;;;;;;5063929;28;20216;-58
2021/12/01 01:53:00;;;;;;;5.20;3.70;;;;;;;;;;5064989;28;20215;-59
2021/12/01 01:55:25;;;;;;;5.43;3.55;;;;;;;;;;5064359;28;20214;-59
2021/12/01 01:57:50;;;;;;;4.80;3.30;;;;;;;;;;5064516;28;20941;-59
2021/12/01 02:00:16;;;;;;;4.25;3.20;;;;;;;;;;5064174;28;20225;-59
2021/12/01 02:02:43;;;;;;;4.82;2.78;;;;;;;;;;5064887;28;20632;-59
2021/12/01 02:05:08;;;;;;;3.67;2.60;;;;;;;;;;5063821;28;20198;-59
2021/12/01 02:07:33;;;;;;;2.33;2.10;;;;;;;;;;5064552;28;20597;-59
2021/12/01 02:09:58;;;;;;;3.35;2.25;;;;;;;;;;5064802;28;20217;-59
2021/12/01 02:12:24;;;;;;;3.95;2.38;;;;;;;;;;5063591;28;20300;-59
2021/12/01 02:14:49;;;;;;;3.92;2.40;;;;;;;;;;5046793;28;20585;-59
2021/12/01 02:17:14;;;;;;;3.97;2.22;;;;;;;;;;5064185;28;20230;-59
2021/12/01 02:19:40;;;;;;;3.13;2.42;;;;;;;;;;5064123;28;20570;-58
2021/12/01 02:22:05;;;;;;;3.08;2.13;;;;;;;;;;5063842;28;20222;-59
2021/12/01 02:24:30;;;;;;;4.35;2.22;;;;;;;;;;5064564;28;20217;-59
2021/12/01 02:26:56;;;;;;;3.45;2.45;;;;;;;;;;5063756;28;20255;-59
2021/12/01 02:29:24;;;;;;;2.80;2.17;;;;;;;;;;5064134;28;20210;-59
2021/12/01 02:31:50;;;;;;;3.53;2.35;;;;;;;;;;5064505;28;20207;-59
2021/12/01 02:34:18;;;;;;;3.13;2.10;;;;;;;;;;5062937;28;20222;-59
2021/12/01 02:36:44;;;;;;;2.60;1.95;;;;;;;;;;5064413;28;20239;-58
2021/12/01 02:39:11;;;;;;;2.92;1.98;;;;;;;;;;5046196;28;20207;-59
2021/12/01 02:41:36;;;;;;;3.35;2.10;;;;;;;;;;5063750;28;20233;-59
2021/12/01 02:44:03;;;;;;;3.42;2.03;;;;;;;;;;5063714;28;20233;-59
2021/12/01 02:46:28;;;;;;;3.20;2.28;;;;;;;;;;5064133;28;20223;-59
2021/12/01 02:48:53;;;;;;;5.00;2.30;;;;;;;;;;5063242;28;20252;-58
2021/12/01 02:51:23;;;;;;;3.60;2.20;;;;;;;;;;5063901;28;20634;-58
2021/12/01 02:53:48;;;;;;;3.53;2.25;;;;;;;;;;5063405;28;20293;-59
2021/12/01 02:56:13;;;;;;;2.75;2.15;;;;;;;;;;5063635;28;20658;-59
2021/12/01 02:58:41;;;;;;;3.70;2.40;;;;;;;;;;5064468;28;20198;-59
2021/12/01 03:01:08;;;;;;;3.47;2.42;;;;;;;;;;5045236;28;20345;-59
2021/12/01 03:03:33;;;;;;;2.85;2.45;;;;;;;;;;5063984;28;20198;-59
2021/12/01 03:05:59;;;;;;;3.78;2.50;;;;;;;;;;5063966;28;20199;-59
2021/12/01 03:08:24;;;;;;;2.95;2.47;;;;;;;;;;5062731;28;20631;-59
2021/12/01 03:10:50;;;;;;;3.10;2.30;;;;;;;;;;5063912;28;20202;-59
2021/12/01 03:13:15;;;;;;;3.50;2.30;;;;;;;;;;5063175;28;20230;-59
2021/12/01 03:15:41;;;;;;;3.88;2.20;;;;;;;;;;5045419;28;20700;-59
2021/12/01 03:18:06;;;;;;;3.53;2.35;;;;;;;;;;5063477;28;20229;-59
2021/12/01 03:20:31;;;;;;;2.83;2.05;;;;;;;;;;5063866;28;20305;-58
2021/12/01 03:22:57;;;;;;;3.55;2.00;;;;;;;;;;5067042;28;20214;-59
2021/12/01 03:25:23;;;;;;;3.83;2.20;;;;;;;;;;5067341;28;20694;-59
2021/12/01 03:27:48;;;;;;;4.22;2.35;;;;;;;;;;5067965;28;20688;-59
2021/12/01 03:30:13;;;;;;;2.58;2.28;;;;;;;;;;5066833;28;20202;-59
2021/12/01 03:32:39;;;;;;;2.75;2.20;;;;;;;;;;5068045;28;20226;-59
2021/12/01 03:35:06;;;;;;;2.55;1.98;;;;;;;;;;5067374;28;20272;-59
2021/12/01 03:37:32;;;;;;;3.25;2.00;;;;;;;;;;5066815;28;20238;-59
2021/12/01 03:39:58;;;;;;;2.83;2.05;;;;;;;;;;5067759;28;21384;-59
2021/12/01 03:42:24;;;;;;;3.15;1.95;;;;;;;;;;5066891;28;20693;-59
2021/12/01 03:44:49;;;;;;;2.53;2.03;;;;;;;;;;5067086;28;20229;-59
2021/12/01 03:47:14;;;;;;;3.40;1.77;;;;;;;;;;5066672;28;20226;-59
2021/12/01 03:49:40;;;;;;;2.45;1.90;;;;;;;;;;5067543;28;20635;-59
2021/12/01 03:52:05;;;;;;;4.70;1.92;;;;;;;;;;5066170;28;20301;-59
2021/12/01 03:54:31;;;;;;;2.45;1.70;;;;;;;;;;5067467;28;20203;-59
2021/12/01 03:56:56;;;;;;;3.28;1.52;;;;;;;;;;5066643;28;20272;-59
2021/12/01 03:59:21;;;;;;;2.10;1.77;;;;;;;;;;5066732;28;20260;-59
2021/12/01 04:01:47;;;;;;;2.53;1.80;;;;;;;;;;5067427;28;20638;-59
2021/12/01 04:04:12;;;;;;;3.20;1.67;;;;;;;;;;5066114;28;20226;-59
2021/12/01 04:06:37;;;;;;;2.75;1.63;;;;;;;;;;5067367;28;20202;-59
2021/12/01 04:09:03;;;;;;;2.67;1.73;;;;;;;;;;5066595;28;20195;-59
2021/12/01 04:11:28;;;;;;;3.00;1.90;;;;;;;;;;5066066;28;20285;-58
2021/12/01 04:13:56;;;;;;;2.30;1.98;;;;;;;;;;5067010;28;20256;-58
2021/12/01 04:16:21;;;;;;;2.10;1.60;;;;;;;;;;5066470;28;20218;-59
2021/12/01 04:18:46;;;;;;;2.83;1.65;;;;;;;;;;5066387;28;20217;-58
2021/12/01 04:21:12;;;;;;;2.42;1.90;;;;;;;;;;5066203;28;20230;-58
2021/12/01 04:23:37;;;;;;;5.25;1.92;;;;;;;;;;5067011;28;20206;-58
2021/12/01 04:26:03;;;;;;;3.10;2.10;;;;;;;;;;5065528;28;20217;-58
2021/12/01 04:28:29;;;;;;;3.58;2.00;;;;;;;;;;5066802;28;20214;-59
2021/12/01 04:30:54;;;;;;;3.33;2.13;;;;;;;;;;5066822;28;20240;-58
2021/12/01 04:33:19;;;;;;;2.63;1.92;;;;;;;;;;5064379;28;20213;-58
2021/12/01 04:35:46;;;;;;;3.22;2.05;;;;;;;;;;5067162;28;20203;-58
2021/12/01 04:38:12;;;;;;;4.15;2.20;;;;;;;;;;5066440;28;20283;-58
2021/12/01 04:40:37;;;;;;;3.67;2.13;;;;;;;;;;5066378;28;20686;-58
2021/12/01 04:43:02;;;;;;;5.00;2.55;;;;;;;;;;5066476;28;20202;-58
2021/12/01 04:45:31;;;;;;;3.47;2.40;;;;;;;;;;5067223;28;20226;-58
2021/12/01 04:47:56;;;;;;;4.00;2.35;;;;;;;;;;5066024;28;20215;-59
2021/12/01 04:50:23;;;;;;;4.50;2.72;;;;;;;;;;5066245;28;20229;-58
2021/12/01 04:52:48;;;;;;;2.88;2.20;;;;;;;;;;5066850;28;20237;-58
2021/12/01 04:55:14;;;;;;;3.08;2.30;;;;;;;;;;5065548;28;20308;-58
2021/12/01 04:57:39;;;;;;;3.30;2.20;;;;;;;;;;5066685;28;20305;-58
2021/12/01 05:00:05;;;;;;;3.50;2.40;;;;;;;;;;5066102;28;20225;-58
2021/12/01 05:02:30;;;;;;;3.25;1.92;;;;;;;;;;5066082;28;20210;-58
2021/12/01 05:04:56;;;;;;;4.30;2.40;;;;;;;;;;5066752;28;20238;-58
2021/12/01 05:07:21;;;;;;;4.75;2.60;;;;;;;;;;5065224;28;20219;-58
2021/12/01 05:09:46;;;;;;;3.15;2.30;;;;;;;;;;5066435;28;20371;-58
2021/12/01 05:12:11;;;;;;;3.60;2.53;;;;;;;;;;5065744;28;20222;-58
2021/12/01 05:14:37;;;;;;;4.18;2.58;;;;;;;;;;5065597;28;20222;-58
2021/12/01 05:17:03;;;;;;;3.60;2.50;;;;;;;;;;5065812;28;20218;-59
2021/12/01 05:19:28;;;;;;;5.22;2.83;;;;;;;;;;5066211;28;20211;-59
2021/12/01 05:21:54;;;;;;;3.83;2.78;;;;;;;;;;5065339;28;20296;-58
2021/12/01 05:24:19;;;;;;;4.97;2.78;;;;;;;;;;5065743;28;20700;-58
2021/12/01 05:26:45;;;;;;;4.20;2.35;;;;;;;;;;5066058;28;20222;-59
2021/12/01 05:29:10;;;;;;;3.95;2.30;;;;;;;;;;5065077;28;20259;-58
2021/12/01 05:31:35;;;;;;;3.58;2.45;;;;;;;;;;5066102;28;20248;-58
2021/12/01 05:34:00;;;;;;;3.85;2.42;;;;;;;;;;5066036;28;20206;-59
2021/12/01 05:36:26;;;;;;;4.25;2.60;;;;;;;;;;5064602;28;20214;-58
2021/12/01 05:38:51;;;;;;;3.60;2.40;;;;;;;;;;5065097;28;20682;-59
2021/12/01 05:41:16;;;;;;;4.05;2.38;;;;;;;;;;5064994;28;20215;-59
2021/12/01 05:43:42;;;;;;;3.40;2.47;;;;;;;;;;5064405;28;20214;-58
2021/12/01 05:46:07;;;;;;;3.50;2.13;;;;;;;;;;5064833;28;20240;-59
2021/12/01 05:48:32;;;;;;;3.43;2.10;;;;;;;;;;5046736;28;20287;-59
2021/12/01 05:50:58;;;;;;;3.90;2.20;;;;;;;;;;5064805;28;20218;-58
2021/12/01 05:53:23;;;;;;;4.43;2.10;;;;;;;;;;5064275;28;20221;-58
2021/12/01 05:55:48;;;;;;;3.47;2.10;;;;;;;;;;5065364;28;20218;-58
2021/12/01 05:58:14;;;;;;;3.00;2.20;;;;;;;;;;5045832;28;20758;-58
2021/12/01 06:00:39;;;;;;;3.15;2.00;;;;;;;;;;5064924;28;20698;-58
2021/12/01 06:03:04;;;;;;;4.10;1.95;;;;;;;;;;5064616;28;20738;-59
2021/12/01 06:05:30;;;;;;;2.58;2.08;;;;;;;;;;5064300;28;20740;-58
2021/12/01 06:07:55;;;;;;;2.13;1.67;;;;;;;;;;5064428;28;20834;-58
2021/12/01 06:10:20;;;;;;;3.15;1.63;;;;;;;;;;5064104;28;20218;-59
2021/12/01 06:12:46;;;;;;;3.03;1.60;;;;;;;;;;5063645;28;20199;-58
2021/12/01 06:15:13;;;;;;;2.65;1.65;;;;;;;;;;5064143;28;20206;-59
2021/12/01 06:17:38;;;;;;;3.50;1.95;;;;;;;;;;5064175;28;20309;-58
2021/12/01 06:20:04;;;;;;;2.17;1.60;;;;;;;;;;5046003;28;20359;-59
2021/12/01 06:22:29;;;;;;;2.97;1.55;;;;;;;;;;5064659;28;20241;-59
2021/12/01 06:24:54;;;;;;;2.23;1.60;;;;;;;;;;5063519;28;20285;-59
2021/12/01 06:27:20;;;;;;;1.95;1.60;;;;;;;;;;5064087;28;20229;-58
2021/12/01 06:29:45;;;;;;;3.03;1.33;;;;;;;;;;5064479;28;20263;-58
2021/12/01 06:32:10;;;;;;;2.17;1.50;;;;;;;;;;5063309;28;20203;-58
2021/12/01 06:34:35;;;;;;;1.43;1.23;;;;;;;;;;5064320;28;20214;-59
2021/12/01 06:37:01;;;;;;;2.40;1.25;;;;;;;;;;5064009;28;20305;-59
2021/12/01 06:39:26;;;;;;;2.20;1.25;;;;;;;;;;5062384;28;20215;-58
2021/12/01 06:41:54;;;;;;;2.53;1.20;;;;;;;;;;5064079;28;20230;-59
2021/12/01 06:44:20;;;;;;;2.97;1.30;;;;;;;;;;5063469;28;20239;-58
2021/12/01 06:46:45;;;;;;;2.47;1.33;;;;;;;;;;5062934;28;20574;-58
2021/12/01 06:49:10;;;;;;;1.77;1.20;;;;;;;;;;5063814;28;20674;-59
2021/12/01 06:51:36;;;;;;;8.67;2.00;;;;;;;;;;5069673;28;20305;-58
2021/12/01 06:54:01;;;;;;;1.33;1.17;;;;;;;;;;5055371;28;20207;-59
2021/12/01 06:56:26;;;;;;;2.30;1.50;;;;;;;;;;5059705;28;20203;-61
2021/12/01 06:58:51;;;;;;;1.40;1.10;;;;;;;;;;5051925;28;20416;-62
2021/12/01 07:01:17;;;;;;;3.22;1.35;;;;;;;;;;5050958;28;20312;-59
2021/12/01 07:03:42;;;;;;;1.30;1.20;;;;;;;;;;5052176;28;20682;-59
2021/12/01 07:06:07;;;;;;;1.30;1.10;;;;;;;;;;5051869;28;20211;-60
2021/12/01 07:08:35;;;;;;;2.85;1.17;;;;;;;;;;5051333;28;20217;-60
2021/12/01 07:11:00;;;;;;;1.73;1.20;;;;;;;;;;5065615;28;20223;-60
2021/12/01 07:13:29;;;;;;;1.35;1.00;;;;;;;;;;5052156;28;20229;-59
2021/12/01 07:15:55;;;;;;;3.13;1.45;;;;;;;;;;5051014;28;20207;-59
2021/12/01 07:18:20;;;;;;;4.30;1.20;;;;;;;;;;5051518;28;20237;-59
2021/12/01 07:20:45;;;;;;;1.30;1.10;;;;;;;;;;5051787;28;20219;-59
2021/12/01 07:23:11;;;;;;;1.55;1.17;;;;;;;;;;5050531;28;20630;-59
2021/12/01 07:25:37;;;;;;;1.57;1.23;;;;;;;;;;5033999;28;20211;-59
2021/12/01 07:28:02;;;;;;;1.42;1.02;;;;;;;;;;5050872;28;20260;-59
2021/12/01 07:30:27;;;;;;;2.30;1.10;;;;;;;;;;5051777;28;20241;-59
2021/12/01 07:32:53;;;;;;;2.20;1.30;;;;;;;;;;5052112;28;20234;-59
2021/12/01 07:35:18;;;;;;;2.40;1.23;;;;;;;;;;5050545;28;20682;-60
2021/12/01 07:37:44;;;;;;;1.30;1.10;;;;;;;;;;5051785;28;20689;-59
2021/12/01 07:40:09;;;;;;;1.52;1.30;;;;;;;;;;5033392;28;20262;-59
2021/12/01 07:42:34;;;;;;;2.38;1.58;;;;;;;;;;5051135;28;20199;-59
2021/12/01 07:45:00;;;;;;;2.63;1.60;;;;;;;;;;5051511;28;20289;-59
2021/12/01 07:47:25;;;;;;;2.03;1.60;;;;;;;;;;5051022;28;20373;-59
2021/12/01 07:49:50;;;;;;;4.03;1.50;;;;;;;;;;5062910;28;20309;-59
2021/12/01 07:52:15;;;;;;;1.67;1.42;;;;;;;;;;5058778;28;20211;-59
2021/12/01 07:54:42;;;;;;;1.83;1.35;;;;;;;;;;5063957;28;20629;-60
2021/12/01 07:57:07;;;;;;;1.55;1.25;;;;;;;;;;5058660;28;20286;-59
2021/12/01 07:59:33;;;;;;;2.13;1.35;;;;;;;;;;5059022;28;20285;-59
2021/12/01 08:01:58;;;;;;;1.65;1.52;;;;;;;;;;5045501;28;20210;-60
2021/12/01 08:04:24;;;;;;;4.57;1.65;;;;;;;;;;5070363;28;20211;-60
2021/12/01 08:06:50;;;;;;;2.75;2.28;;;;;;;;;;5069094;28;20732;-60
2021/12/01 08:09:15;;;;;;;3.80;2.80;;;;;;;;;;5061594;28;20215;-60
2021/12/01 08:11:40;;;;;;;3.92;2.30;;;;;;;;;;5063044;28;20636;-60
2021/12/01 08:14:07;;;;;;;4.47;2.50;;;;;;;;;;5054634;28;20222;-60
2021/12/01 08:16:34;;;;;;;4.35;2.72;;;;;;;;;;5055236;28;20211;-60
2021/12/01 08:18:59;;;;;;;3.35;2.72;;;;;;;;;;5053167;28;20203;-60
2021/12/01 08:21:24;;;;;;;4.63;3.40;;;;;;;;;;5059640;28;20221;-60
2021/12/01 08:23:50;;;;;;;4.25;3.40;;;;;;;;;;5074637;28;20661;-59
2021/12/01 08:26:16;;;;;;;4.85;3.17;;;;;;;;;;5071107;28;20210;-60
2021/12/01 08:28:42;;;;;;;6.20;3.43;;;;;;;;;;5061067;28;20206;-60
2021/12/01 08:31:07;;;;;;;4.53;3.25;;;;;;;;;;5073463;28;20241;-59
2021/12/01 08:33:33;;;;;;;4.70;3.80;;;;;;;;;;5074576;28;20206;-59
2021/12/01 08:35:58;;;;;;;4.80;3.67;;;;;;;;;;5073563;28;20210;-59
2021/12/01 08:38:23;;;;;;;5.28;3.83;;;;;;;;;;5072796;28;20206;-60
2021/12/01 08:40:49;;;;;;;4.47;3.55;;;;;;;;;;5074489;28;20353;-59
2021/12/01 08:43:14;;;;;;;6.85;3.88;;;;;;;;;;5073858;28;20231;-60
2021/12/01 08:45:39;;;;;;;4.47;3.67;;;;;;;;;;5073685;28;20206;-59
2021/12/01 08:48:05;;;;;;;6.30;3.90;;;;;;;;;;5073791;28;20222;-60
2021/12/01 08:50:30;;;;;;;6.22;3.97;;;;;;;;;;5063627;28;20290;-60
2021/12/01 08:52:56;;;;;;;5.60;4.15;;;;;;;;;;5053205;28;20652;-60
2021/12/01 08:55:23;;;;;;;5.95;4.30;;;;;;;;;;5035152;28;20257;-60
2021/12/01 08:57:48;;;;;;;6.53;4.30;;;;;;;;;;5053541;28;20681;-60
2021/12/01 09:00:14;;;;;;;6.90;4.90;;;;;;;;;;5055857;28;20261;-59
2021/12/01 09:02:39;;;;;;;4.97;4.25;;;;;;;;;;5055871;28;20203;-60
2021/12/01 09:05:05;;;;;;;7.13;5.20;;;;;;;;;;5063825;28;20582;-60
2021/12/01 09:07:30;;;;;;;8.63;4.78;;;;;;;;;;5072789;28;20210;-60
2021/12/01 09:09:55;;;;;;;6.40;4.70;;;;;;;;;;5074240;28;20210;-60
2021/12/01 09:12:21;;;;;;;7.65;4.97;;;;;;;;;;5071797;28;20769;-60
2021/12/01 09:14:46;;;;;;;8.05;5.03;;;;;;;;;;5064083;28;20252;-60
2021/12/01 09:17:12;;;;;;;7.75;5.03;;;;;;;;;;5073530;28;20238;-60
2021/12/01 09:19:38;;;;;;;9.63;6.40;;;;;;;;;;5072641;28;20509;-59
2021/12/01 09:22:03;;;;;;;8.00;5.38;;;;;;;;;;5061186;28;20989;-60
2021/12/01 09:24:29;;;;;;;8.77;5.65;;;;;;;;;;5053084;28;20211;-61
2021/12/01 09:26:54;;;;;;;8.00;5.88;;;;;;;;;;5073844;28;20609;-62
2021/12/01 09:29:19;;;;;;;10.43;5.83;;;;;;;;;;5061146;28;20218;-62
2021/12/01 09:31:44;;;;;;;9.40;5.47;;;;;;;;;;5053614;28;20290;-62
2021/12/01 09:34:10;;;;;;;10.90;5.85;;;;;;;;;;5053257;28;20222;-61
2021/12/01 09:36:35;;;;;;;6.15;3.30;;;;;;;;;;5070054;28;20666;-61
2021/12/01 09:39:00;;;;;;;8.27;5.50;;;;;;;;;;5073270;28;20206;-61
2021/12/01 09:41:26;;;;;;;10.85;8.07;;;;;;;;;;5068256;28;20238;-61
2021/12/01 09:43:51;;;;;;;8.13;2.90;;;;;;;;;;5052040;28;20203;-61
2021/12/01 09:46:16;;;;;;;7.72;3.30;;;;;;;;;;5052796;28;20219;-61
2021/12/01 09:48:42;;;;;;;6.95;2.22;;;;;;;;;;5047751;28;20227;-61
2021/12/01 09:51:07;;;;;;;6.05;2.05;;;;;;;;;;5033001;28;20227;-61
2021/12/01 09:53:33;;;;;;;7.47;2.28;;;;;;;;;;5033060;28;20208;-61
2021/12/01 09:55:58;;;;;;;11.55;5.47;;;;;;;;;;5044513;28;20245;-60
2021/12/01 09:58:24;;;;;;;11.02;3.97;;;;;;;;;;5052516;28;20249;-60
2021/12/01 10:00:51;;;;;;;8.95;2.10;;;;;;;;;;5038802;28;20306;-60
2021/12/01 10:03:16;;;;;;;9.63;2.70;;;;;;;;;;5049705;28;20234;-61
2021/12/01 10:05:46;;;;;;;9.15;4.07;;;;;;;;;;5041064;28;20672;-60
2021/12/01 10:08:16;;;;;;;9.55;2.17;;;;;;;;;;5032383;28;20216;-60
2021/12/01 10:10:42;;;;;;;8.90;2.20;;;;;;;;;;5032171;28;20246;-60
2021/12/01 10:13:07;;;;;;;9.23;2.17;;;;;;;;;;5032515;28;20203;-60
2021/12/01 10:15:32;;;;;;;12.32;2.10;;;;;;;;;;5046845;28;20297;-60
2021/12/01 10:18:12;;;;;;;9.88;1.95;;;;;;;;;;5051948;28;20302;-60
2021/12/01 10:20:37;;;;;;;6.85;1.95;;;;;;;;;;5052486;28;20218;-60
2021/12/01 10:23:05;;;;;;;9.98;1.70;;;;;;;;;;5032425;28;20207;-60
2021/12/01 10:25:30;;;;;;;5.65;1.40;;;;;;;;;;5038780;28;20207;-60
2021/12/01 10:27:55;;;;;;;8.13;1.55;;;;;;;;;;5052772;28;20716;-60
2021/12/01 10:30:34;;;;;;;9.98;1.95;;;;;;;;;;5052162;28;20219;-60
2021/12/01 10:33:14;;;;;;;5.75;1.10;;;;;;;;;;5051751;28;20203;-60
2021/12/01 10:35:39;;;;;;;10.32;1.67;;;;;;;;;;5041224;28;20261;-60
2021/12/01 10:38:06;;;;;;;8.13;1.65;;;;;;;;;;5032490;28;20216;-61
2021/12/01 10:40:32;;;;;;;9.07;1.42;;;;;;;;;;5045536;28;20595;-61
2021/12/01 10:42:58;;;;;;;8.30;1.80;;;;;;;;;;5037670;28;20388;-61
2021/12/01 10:45:24;;;;;;;8.98;1.83;;;;;;;;;;5050823;28;20207;-62
2021/12/01 10:47:50;;;;;;;7.00;1.33;;;;;;;;;;5063789;28;20229;-63
2021/12/01 10:50:17;;;;;;;7.30;1.20;;;;;;;;;;5071338;28;20552;-62
2021/12/01 10:52:44;;;;;;;5.13;0.80;;;;;;;;;;5071049;28;20304;-62
2021/12/01 10:55:12;;;;;;;3.58;0.82;;;;;;;;;;5071655;28;20654;-62
2021/12/01 10:57:38;;;;;;;5.70;1.25;;;;;;;;;;5070949;28;20213;-62
2021/12/01 11:00:07;;;;;;;4.93;1.00;;;;;;;;;;5070742;28;20685;-62
2021/12/01 11:02:33;;;;;;;4.28;0.88;;;;;;;;;;5057584;28;20211;-62
2021/12/01 11:04:59;;;;;;;4.40;0.90;;;;;;;;;;5051901;28;20241;-62
2021/12/01 11:07:25;;;;;;;5.40;0.75;;;;;;;;;;5050565;28;20202;-61
2021/12/01 11:10:07;;;;;;;3.92;0.90;;;;;;;;;;5051932;28;20242;-61
2021/12/01 11:12:33;;;;;;;5.05;0.85;;;;;;;;;;5034016;28;20222;-61
2021/12/01 11:14:58;;;;;;;6.85;0.90;;;;;;;;;;5062656;28;20206;-61
2021/12/01 11:17:42;;;;;;;3.65;0.70;;;;;;;;;;5070379;28;20271;-61
2021/12/01 11:20:07;;;;;;;4.97;0.80;;;;;;;;;;5070433;28;20230;-61
2021/12/01 11:22:36;;;;;;;6.32;1.20;;;;;;;;;;5055990;28;20245;-61
2021/12/01 11:25:21;;;;;;;5.50;1.00;;;;;;;;;;5051302;28;20249;-61
2021/12/01 11:27:46;;;;;;;9.57;2.03;;;;;;;;;;5051101;28;20203;-61
2021/12/01 11:30:12;;;;;;;6.13;2.03;;;;;;;;;;5051150;28;20218;-61
2021/12/01 11:32:37;;;;;;;9.77;3.05;;;;;;;;;;5051774;28;20245;-61
2021/12/01 11:35:02;;;;;;;11.77;4.32;;;;;;;;;;5050543;28;20666;-61
2021/12/01 11:37:28;;;;;;;7.68;2.20;;;;;;;;;;5051269;28;20207;-61
2021/12/01 11:39:55;;;;;;;10.05;2.40;;;;;;;;;;5034025;28;20214;-61
2021/12/01 11:42:20;;;;;;;8.38;2.15;;;;;;;;;;5051183;28;20223;-61
2021/12/01 11:44:45;;;;;;;8.93;3.05;;;;;;;;;;5037976;28;20553;-61
2021/12/01 11:47:11;;;;;;;13.43;5.22;;;;;;;;;;5037040;28;20372;-61
2021/12/01 11:49:36;;;;;;;12.95;6.18;;;;;;;;;;5054617;28;20256;-61
2021/12/01 11:52:03;;;;;;;6.97;1.63;;;;;;;;;;5036922;28;20211;-61
2021/12/01 11:54:31;;;;;;;6.35;1.10;;;;;;;;;;5055575;28;20222;-60
2021/12/01 11:56:59;;;;;;;5.68;1.30;;;;;;;;;;5037270;28;20211;-61
2021/12/01 11:59:25;;;;;;;6.60;1.30;;;;;;;;;;5054965;28;20252;-61
2021/12/01 12:01:52;;;;;;;8.10;1.35;;;;;;;;;;5060612;28;20222;-60
2021/12/01 12:04:19;;;;;;;7.70;1.50;;;;;;;;;;5073925;28;20267;-60
2021/12/01 12:06:46;;;;;;;6.00;1.10;;;;;;;;;;5074777;28;20297;-60
2021/12/01 12:09:12;;;;;;;7.72;1.33;;;;;;;;;;5074146;28;20203;-61
2021/12/01 12:11:46;;;;;;;9.00;1.40;;;;;;;;;;5075177;28;20210;-60
2021/12/01 12:14:13;;;;;;;9.85;1.45;;;;;;;;;;5069168;28;20226;-61
2021/12/01 12:16:38;;;;;;;9.40;1.60;;;;;;;;;;5054140;28;20406;-60
2021/12/01 12:19:04;;;;;;;7.95;1.60;;;;;;;;;;5058030;28;20211;-60
2021/12/01 12:24:04;;;;;;;9.93;1.65;;;;;;;;;;5073611;28;20609;-60
2021/12/01 12:26:30;;;;;;;6.30;1.40;;;;;;;;;;5073637;28;20210;-60
2021/12/01 12:29:04;;;;;;;9.23;1.67;;;;;;;;;;5061151;28;20348;-60
2021/12/01 12:31:31;;;;;;;9.32;2.85;;;;;;;;;;5053369;28;20215;-60
2021/12/01 12:33:59;;;;;;;9.57;1.40;;;;;;;;;;5054925;28;20207;-60
2021/12/01 12:36:38;;;;;;;9.98;1.60;;;;;;;;;;5054236;28;20211;-60
2021/12/01 12:39:04;;;;;;;9.55;1.27;;;;;;;;;;5035716;28;20678;-60
2021/12/01 12:41:30;;;;;;;13.25;1.80;;;;;;;;;;5054560;28;20577;-60
2021/12/01 12:43:55;;;;;;;10.75;1.67;;;;;;;;;;5054254;28;20721;-60
2021/12/01 12:46:20;;;;;;;8.25;1.23;;;;;;;;;;5053280;28;20223;-60
2021/12/01 12:48:48;;;;;;;12.70;1.50;;;;;;;;;;5032961;28;20307;-60
2021/12/01 12:51:16;;;;;;;9.32;1.42;;;;;;;;;;5034067;28;20222;-60
2021/12/01 12:53:59;;;;;;;11.05;2.67;;;;;;;;;;5032937;28;20208;-60
2021/12/01 12:56:25;;;;;;;13.45;4.28;;;;;;;;;;5034164;28;20208;-60
2021/12/01 12:58:50;;;;;;;8.90;2.03;;;;;;;;;;5033319;28;20344;-60
2021/12/01 13:01:24;;;;;;;11.30;1.75;;;;;;;;;;5034522;28;20226;-60
2021/12/01 13:03:51;;;;;;;8.23;1.95;;;;;;;;;;5053870;28;20581;-60
2021/12/01 13:06:26;;;;;;;15.23;4.20;;;;;;;;;;5052834;28;20298;-60
2021/12/01 13:08:51;;;;;;;10.80;2.00;;;;;;;;;;5043548;28;20211;-60
2021/12/01 13:11:18;;;;;;;8.63;1.65;;;;;;;;;;5033698;28;20216;-60
2021/12/01 13:13:46;;;;;;;10.30;2.00;;;;;;;;;;5033671;28;20618;-60
2021/12/01 13:16:12;;;;;;;10.43;1.42;;;;;;;;;;5052364;28;20222;-60
2021/12/01 13:18:40;;;;;;;8.68;1.40;;;;;;;;;;5047231;28;20358;-60
2021/12/01 13:21:06;;;;;;;10.10;1.10;;;;;;;;;;5049950;28;20272;-59
2021/12/01 13:23:33;;;;;;;7.53;1.83;;;;;;;;;;5036527;28;20212;-60
2021/12/01 13:26:08;;;;;;;7.05;1.40;;;;;;;;;;5034168;28;20214;-60
2021/12/01 13:28:35;;;;;;;8.38;1.85;;;;;;;;;;5032563;28;20219;-60
2021/12/01 13:31:02;;;;;;;6.65;2.08;;;;;;;;;;5032221;28;20215;-61
2021/12/01 13:33:27;;;;;;;5.40;1.00;;;;;;;;;;5032471;28;20211;-61
2021/12/01 13:35:52;;;;;;;8.38;1.70;;;;;;;;;;5033172;28;20291;-61
2021/12/01 13:38:29;;;;;;;8.00;1.20;;;;;;;;;;5033090;28;20211;-61
2021/12/01 13:40:54;;;;;;;8.32;0.93;;;;;;;;;;5032867;28;20227;-61
2021/12/01 13:43:19;;;;;;;5.10;1.15;;;;;;;;;;5032916;28;20219;-61
2021/12/01 13:45:53;;;;;;;6.28;1.00;;;;;;;;;;5033552;28;20619;-60
2021/12/01 13:48:18;;;;;;;11.10;1.30;;;;;;;;;;5047821;28;20223;-61
2021/12/01 13:50:43;;;;;;;9.35;1.20;;;;;;;;;;5053352;28;20211;-61
2021/12/01 13:53:09;;;;;;;9.68;1.50;;;;;;;;;;5052690;28;20242;-61
2021/12/01 13:55:36;;;;;;;6.03;0.82;;;;;;;;;;5052437;28;20211;-62
2021/12/01 13:58:06;;;;;;;5.18;0.90;;;;;;;;;;5052403;28;20293;-62
2021/12/01 14:00:35;;;;;;;6.47;1.10;;;;;;;;;;5052985;28;20702;-63
2021/12/01 14:03:00;;;;;;;9.85;1.75;;;;;;;;;;5054676;28;20264;-63
2021/12/01 14:05:26;;;;;;;6.40;1.10;;;;;;;;;;5056349;28;20210;-63
2021/12/01 14:07:51;;;;;;;6.72;1.33;;;;;;;;;;5056699;28;20215;-62
2021/12/01 14:10:32;;;;;;;6.93;1.10;;;;;;;;;;5058644;28;20214;-63
2021/12/01 14:12:58;;;;;;;7.13;1.30;;;;;;;;;;5064800;28;20211;-62
2021/12/01 14:15:25;;;;;;;6.20;1.55;;;;;;;;;;5046392;28;20225;-63
2021/12/01 14:17:50;;;;;;;9.45;1.70;;;;;;;;;;5063918;28;20203;-63
2021/12/01 14:20:16;;;;;;;6.15;1.05;;;;;;;;;;5064125;28;20580;-62
2021/12/01 14:22:47;;;;;;;5.50;1.00;;;;;;;;;;5064844;28;20218;-62
2021/12/01 14:25:12;;;;;;;5.33;0.90;;;;;;;;;;5062509;28;20268;-62
2021/12/01 14:27:38;;;;;;;9.13;1.10;;;;;;;;;;5038874;28;20210;-62
2021/12/01 14:30:05;;;;;;;5.40;1.23;;;;;;;;;;5037164;28;20207;-63
2021/12/01 14:32:31;;;;;;;6.28;1.23;;;;;;;;;;5058108;28;20219;-65
2021/12/01 14:35:02;;;;;;;8.82;1.58;;;;;;;;;;5046737;28;20221;-63
2021/12/01 14:37:27;;;;;;;5.07;0.80;;;;;;;;;;5045702;28;20217;-62
2021/12/01 14:40:02;;;;;;;7.13;1.03;;;;;;;;;;5064128;28;20206;-62
2021/12/01 14:42:27;;;;;;;5.13;1.17;;;;;;;;;;5064385;28;20217;-64
2021/12/01 14:45:01;;;;;;;7.75;2.13;;;;;;;;;;5063623;28;20260;-63
2021/12/01 14:47:26;;;;;;;6.18;2.03;;;;;;;;;;5061779;28;20230;-63